createdAt,value
2023-04-12T00:00:53.087Z,72.35
2023-04-12T00:03:22.318Z,70.74
2023-04-12T00:05:54.679Z,72.10
2023-04-12T00:08:26.298Z,72.97
2023-04-12T00:10:54.192Z,73.25
2023-04-12T00:13:23.412Z,72.42
2023-04-12T00:15:51.354Z,72.16
2023-04-12T00:18:19.263Z,72.70
2023-04-12T00:20:47.100Z,72.66
2023-04-12T00:23:15.434Z,72.01
2023-04-12T00:25:43.275Z,72.58
2023-04-12T00:28:11.157Z,73.06
2023-04-12T00:30:41.261Z,73.47
2023-04-12T00:33:09.428Z,72.84
2023-04-12T00:35:37.422Z,72.96
2023-04-12T00:38:10.258Z,73.62
2023-04-12T00:40:42.528Z,73.70
2023-04-12T00:43:18.384Z,73.58
2023-04-12T00:45:48.461Z,73.46
2023-04-12T00:48:16.771Z,73.89
2023-04-12T00:50:47.682Z,73.42
2023-04-12T00:53:15.975Z,73.78
2023-04-12T00:55:46.050Z,73.42
2023-04-12T00:58:15.954Z,72.82
2023-04-12T01:00:50.486Z,74.92
2023-04-12T01:03:22.952Z,74.93
2023-04-12T01:06:05.255Z,73.82
2023-04-12T01:08:45.359Z,73.63
2023-04-12T01:11:19.520Z,73.22
2023-04-12T01:13:56.970Z,74.46
2023-04-12T01:16:31.844Z,74.24
2023-04-12T01:19:06.364Z,74.03
2023-04-12T01:21:46.389Z,74.41
2023-04-12T01:24:29.077Z,74.05
2023-04-12T01:27:00.712Z,73.73
2023-04-12T01:29:31.317Z,73.13
2023-04-12T01:32:02.201Z,74.61
2023-04-12T01:34:33.423Z,73.28
2023-04-12T01:37:03.487Z,74.55
2023-04-12T01:39:32.693Z,73.84
2023-04-12T01:42:00.851Z,73.52
2023-04-12T01:44:30.944Z,72.96
2023-04-12T01:46:58.839Z,74.74
2023-04-12T01:49:34.740Z,74.48
2023-04-12T01:52:05.642Z,73.47
2023-04-12T01:54:39.607Z,74.90
2023-04-12T01:57:08.940Z,74.14
2023-04-12T01:59:41.898Z,74.32
2023-04-12T02:02:12.049Z,74.39
2023-04-12T02:04:40.921Z,73.89
2023-04-12T02:07:09.499Z,74.01
2023-04-12T02:09:38.574Z,73.12
2023-04-12T02:12:07.287Z,75.72
2023-04-12T02:14:37.181Z,76.00
2023-04-12T02:17:08.530Z,73.79
2023-04-12T02:19:36.763Z,75.21
2023-04-12T02:22:05.752Z,74.38
2023-04-12T02:24:33.657Z,74.02
2023-04-12T02:27:01.808Z,74.15
2023-04-12T02:29:31.261Z,74.85
2023-04-12T02:31:59.154Z,73.77
2023-04-12T02:34:34.159Z,76.13
2023-04-12T02:37:13.690Z,75.39
2023-04-12T02:39:41.969Z,74.27
2023-04-12T02:42:10.586Z,76.21
2023-04-12T02:44:39.857Z,73.86
2023-04-12T02:47:13.441Z,74.86
2023-04-12T02:49:45.822Z,74.58
2023-04-12T02:52:16.494Z,76.07
2023-04-12T02:54:59.819Z,75.43
2023-04-12T02:57:27.677Z,74.88
2023-04-12T02:59:55.929Z,75.15
2023-04-12T03:02:27.114Z,74.87
2023-04-12T03:05:03.518Z,74.00
2023-04-12T03:07:40.313Z,73.56
2023-04-12T03:10:11.978Z,74.89
2023-04-12T03:12:45.466Z,74.95
2023-04-12T03:15:18.810Z,74.56
2023-04-12T03:17:49.581Z,74.79
2023-04-12T03:20:21.383Z,74.99
2023-04-12T03:22:58.111Z,74.95
2023-04-12T03:25:26.030Z,76.04
2023-04-12T03:27:58.358Z,75.27
2023-04-12T03:30:36.967Z,74.61
2023-04-12T03:33:05.034Z,74.67
2023-04-12T03:35:35.699Z,74.91
2023-04-12T03:38:04.033Z,75.57
2023-04-12T03:40:32.162Z,74.63
2023-04-12T03:43:01.868Z,74.63
2023-04-12T03:45:31.334Z,74.48
2023-04-12T03:48:02.408Z,73.75
2023-04-12T03:50:44.053Z,74.66
2023-04-12T03:53:17.410Z,73.92
2023-04-12T03:55:47.447Z,73.80
2023-04-12T03:58:16.323Z,74.41
2023-04-12T04:00:46.684Z,74.93
2023-04-12T04:03:16.054Z,74.42
2023-04-12T04:05:51.514Z,75.47
2023-04-12T04:08:21.863Z,73.83
2023-04-12T04:10:53.689Z,73.47
2023-04-12T04:13:26.068Z,73.94
2023-04-12T04:16:03.399Z,73.75
2023-04-12T04:18:31.429Z,73.76
2023-04-12T04:21:01.381Z,73.29
2023-04-12T04:23:38.984Z,74.05
2023-04-12T04:26:10.141Z,74.40
2023-04-12T04:28:45.158Z,73.37
2023-04-12T04:31:18.267Z,74.29
2023-04-12T04:33:50.869Z,74.43
2023-04-12T04:36:22.714Z,74.37
2023-04-12T04:38:54.900Z,73.46
2023-04-12T04:41:39.453Z,73.04
2023-04-12T04:44:10.440Z,72.20
2023-04-12T04:46:44.141Z,73.10
2023-04-12T04:49:12.079Z,73.15
2023-04-12T04:51:41.327Z,72.58
2023-04-12T04:54:13.791Z,71.83
2023-04-12T04:56:43.148Z,71.26
2023-04-12T04:59:13.307Z,71.42
2023-04-12T05:01:41.604Z,73.05
2023-04-12T05:04:10.026Z,72.43
2023-04-12T05:06:38.081Z,71.44
2023-04-12T05:09:10.137Z,70.95
2023-04-12T05:11:44.385Z,70.85
2023-04-12T05:14:13.421Z,70.75
2023-04-12T05:16:41.938Z,70.17
2023-04-12T05:19:09.833Z,70.10
2023-04-12T05:21:37.762Z,70.15
2023-04-12T05:24:05.928Z,70.23
2023-04-12T05:26:37.319Z,70.51
2023-04-12T05:29:10.841Z,69.88
2023-04-12T05:31:38.711Z,68.35
2023-04-12T05:34:10.844Z,68.35
2023-04-12T05:36:45.333Z,69.56
2023-04-12T05:39:13.187Z,68.78
2023-04-12T05:41:42.408Z,68.79
2023-04-12T05:44:10.903Z,68.92
2023-04-12T05:46:39.171Z,69.56
2023-04-12T05:49:07.871Z,68.01
2023-04-12T05:51:41.452Z,66.18
2023-04-12T05:54:20.960Z,65.26
2023-04-12T05:56:51.891Z,63.81
2023-04-12T05:59:19.818Z,62.22
2023-04-12T06:01:47.869Z,58.67
2023-04-12T06:04:18.566Z,58.06
2023-04-12T06:06:47.477Z,57.99
2023-04-12T06:09:15.914Z,55.95
2023-04-12T06:11:44.560Z,56.91
2023-04-12T06:14:13.795Z,56.66
2023-04-12T06:16:42.143Z,56.95
2023-04-12T06:19:10.985Z,57.68
2023-04-12T06:21:38.856Z,59.11
2023-04-12T06:24:10.871Z,57.82
2023-04-12T06:26:40.209Z,57.03
2023-04-12T06:29:09.762Z,56.08
2023-04-12T06:31:39.331Z,54.77
2023-04-12T06:34:08.718Z,54.52
2023-04-12T06:36:41.488Z,54.38
2023-04-12T06:39:09.566Z,55.79
2023-04-12T06:41:37.407Z,51.83
2023-04-12T06:44:05.210Z,51.58
2023-04-12T06:46:33.106Z,52.20
2023-04-12T06:49:02.407Z,52.09
2023-04-12T06:51:30.242Z,51.42
2023-04-12T06:53:58.385Z,51.40
2023-04-12T06:56:26.333Z,51.82
2023-04-12T06:58:54.240Z,50.17
2023-04-12T07:01:22.350Z,50.96
2023-04-12T07:03:50.468Z,50.75
2023-04-12T07:06:25.634Z,49.26
2023-04-12T07:08:54.665Z,47.66
2023-04-12T07:11:23.853Z,49.93
2023-04-12T07:13:52.319Z,51.35
2023-04-12T07:16:20.345Z,50.48
2023-04-12T07:18:48.830Z,49.79
2023-04-12T07:21:17.758Z,48.91
2023-04-12T07:23:51.083Z,49.45
2023-04-12T07:26:19.027Z,48.56
2023-04-12T07:28:46.870Z,47.98
2023-04-12T07:31:14.808Z,47.34
2023-04-12T07:33:43.433Z,48.44
2023-04-12T07:36:12.333Z,49.33
2023-04-12T07:38:40.493Z,47.18
2023-04-12T07:41:09.839Z,45.91
2023-04-12T07:43:37.666Z,47.57
2023-04-12T07:46:08.680Z,44.42
2023-04-12T07:48:36.748Z,45.20
2023-04-12T07:51:05.308Z,46.53
2023-04-12T07:53:33.339Z,47.22
2023-04-12T07:56:01.296Z,44.61
2023-04-12T07:58:30.682Z,44.73
2023-04-12T08:01:00.890Z,43.04
2023-04-12T08:03:29.346Z,45.72
2023-04-12T08:05:57.345Z,43.27
2023-04-12T08:08:25.251Z,44.03
2023-04-12T08:10:53.711Z,44.26
2023-04-12T08:13:21.769Z,45.53
2023-04-12T08:15:51.084Z,44.59
2023-04-12T08:18:19.383Z,43.94
2023-04-12T08:20:49.171Z,43.46
2023-04-12T08:23:17.464Z,42.14
2023-04-12T08:25:45.284Z,41.09
2023-04-12T08:28:13.277Z,40.45
2023-04-12T08:30:41.238Z,41.06
2023-04-12T08:33:10.592Z,40.63
2023-04-12T08:35:39.880Z,42.28
2023-04-12T08:38:08.159Z,41.59
2023-04-12T08:40:36.848Z,41.01
2023-04-12T08:43:12.125Z,39.36
2023-04-12T08:45:40.171Z,39.66
2023-04-12T08:48:08.387Z,39.98
2023-04-12T08:50:37.736Z,41.86
2023-04-12T08:53:05.608Z,38.87
2023-04-12T08:55:33.492Z,37.42
2023-04-12T08:58:03.971Z,37.03
2023-04-12T09:00:32.086Z,36.45
2023-04-12T09:03:00.109Z,36.76
2023-04-12T09:05:30.197Z,36.10
2023-04-12T09:07:59.687Z,36.25
2023-04-12T09:10:36.591Z,35.92
2023-04-12T09:13:05.196Z,36.97
2023-04-12T09:15:34.464Z,35.20
2023-04-12T09:18:08.520Z,36.36
2023-04-12T09:20:37.114Z,35.25
2023-04-12T09:23:20.617Z,35.87
2023-04-12T09:25:51.883Z,34.59
2023-04-12T09:28:25.747Z,33.44
2023-04-12T09:30:54.652Z,34.91
2023-04-12T09:33:24.004Z,33.43
2023-04-12T09:35:52.175Z,33.25
2023-04-12T09:38:21.413Z,32.87
2023-04-12T09:40:50.137Z,32.71
2023-04-12T09:43:18.314Z,31.90
2023-04-12T09:45:46.307Z,33.37
2023-04-12T09:48:21.593Z,32.45
2023-04-12T09:50:49.615Z,33.12
2023-04-12T09:53:19.179Z,31.41
2023-04-12T09:55:51.173Z,32.69
2023-04-12T09:58:20.609Z,30.53
2023-04-12T10:00:49.363Z,31.82
2023-04-12T10:03:17.437Z,31.69
2023-04-12T10:05:45.532Z,30.11
2023-04-12T10:08:15.183Z,30.94
2023-04-12T10:10:46.084Z,30.34
2023-04-12T10:13:16.735Z,29.05
2023-04-12T10:15:47.235Z,30.26
2023-04-12T10:18:17.224Z,28.91
2023-04-12T10:20:47.026Z,29.60
2023-04-12T10:23:19.079Z,29.47
2023-04-12T10:25:49.411Z,28.70
2023-04-12T10:28:19.793Z,28.42
2023-04-12T10:30:49.586Z,28.19
2023-04-12T10:33:19.287Z,26.87
2023-04-12T10:35:56.372Z,28.33
2023-04-12T10:38:26.870Z,28.83
2023-04-12T10:41:25.020Z,29.14
2023-04-12T10:44:25.125Z,28.75
2023-04-12T10:46:53.156Z,28.82
2023-04-12T10:49:21.380Z,27.05
2023-04-12T10:52:15.944Z,29.03
2023-04-12T10:54:44.028Z,27.42
2023-04-12T10:57:44.234Z,28.38
2023-04-12T11:00:14.949Z,29.15
2023-04-12T11:03:05.834Z,28.05
2023-04-12T11:05:58.808Z,28.48
2023-04-12T11:08:47.466Z,29.42
2023-04-12T11:11:23.870Z,28.75
2023-04-12T11:13:57.474Z,27.87
2023-04-12T11:16:26.813Z,27.08
2023-04-12T11:18:55.510Z,28.16
2023-04-12T11:21:23.937Z,28.09
2023-04-12T11:23:54.595Z,27.76
2023-04-12T11:26:22.679Z,29.52
2023-04-12T11:28:53.253Z,28.56
2023-04-12T11:31:23.109Z,28.28
2023-04-12T11:33:52.636Z,29.65
2023-04-12T11:36:20.552Z,29.41
2023-04-12T11:38:50.255Z,28.98
2023-04-12T11:41:19.371Z,29.04
2023-04-12T11:43:48.358Z,29.21
2023-04-12T11:46:18.262Z,29.61
2023-04-12T11:48:47.083Z,29.31
2023-04-12T11:51:24.819Z,28.17
2023-04-12T11:53:57.254Z,28.80
2023-04-12T11:56:25.652Z,29.98
2023-04-12T11:58:53.754Z,29.69
2023-04-12T12:01:23.309Z,29.82
2023-04-12T12:03:51.649Z,30.01
2023-04-12T12:06:22.708Z,30.25
2023-04-12T12:08:51.595Z,30.47
2023-04-12T12:11:21.428Z,29.80
2023-04-12T12:13:50.917Z,30.48
2023-04-12T12:16:19.817Z,30.20
2023-04-12T12:18:52.514Z,30.64
2023-04-12T12:21:22.526Z,31.28
2023-04-12T12:23:50.856Z,30.76
2023-04-12T12:26:22.814Z,30.72
2023-04-12T12:28:52.360Z,30.14
2023-04-12T12:31:21.509Z,30.93
2023-04-12T12:33:49.801Z,30.64
2023-04-12T12:36:19.718Z,29.94
2023-04-12T12:38:51.322Z,30.28
2023-04-12T12:41:20.964Z,29.76
2023-04-12T12:43:49.609Z,29.89
2023-04-12T12:46:19.042Z,30.34
2023-04-12T12:48:48.414Z,30.83
2023-04-12T12:51:17.975Z,31.24
2023-04-12T12:53:46.191Z,31.24
2023-04-12T12:56:17.110Z,30.53
2023-04-12T12:58:45.319Z,30.88
2023-04-12T13:01:13.193Z,32.16
2023-04-12T13:03:41.287Z,30.10
2023-04-12T13:06:10.077Z,30.12
2023-04-12T13:08:38.207Z,30.42
2023-04-12T13:11:06.579Z,31.36
2023-04-12T13:13:36.359Z,31.05
2023-04-12T13:16:04.386Z,30.95
2023-04-12T13:18:32.367Z,30.44
2023-04-12T13:21:00.562Z,30.99
2023-04-12T13:23:28.516Z,29.92
2023-04-12T13:25:56.341Z,30.72
2023-04-12T13:28:24.184Z,30.84
2023-04-12T13:30:53.404Z,30.99
2023-04-12T13:33:22.325Z,30.99
2023-04-12T13:35:50.596Z,30.77
2023-04-12T13:38:18.602Z,31.17
2023-04-12T13:40:46.501Z,31.19
2023-04-12T13:43:14.401Z,31.49
2023-04-12T13:45:42.394Z,31.26
2023-04-12T13:48:11.786Z,31.32
2023-04-12T13:50:39.662Z,31.47
2023-04-12T13:53:07.540Z,31.01
2023-04-12T13:55:35.453Z,31.27
2023-04-12T13:58:03.301Z,31.99
2023-04-12T14:00:31.242Z,31.88
2023-04-12T14:02:59.304Z,31.99
2023-04-12T14:05:28.710Z,31.59
2023-04-12T14:07:56.738Z,31.85
2023-04-12T14:10:27.628Z,32.29
2023-04-12T14:12:55.596Z,32.71
2023-04-12T14:15:23.606Z,33.02
2023-04-12T14:17:51.778Z,33.93
2023-04-12T14:20:20.302Z,33.58
2023-04-12T14:22:49.718Z,33.78
2023-04-12T14:25:17.827Z,33.40
2023-04-12T14:27:45.952Z,33.82
2023-04-12T14:30:15.474Z,33.37
2023-04-12T14:32:45.937Z,33.26
2023-04-12T14:35:15.263Z,33.47
2023-04-12T14:37:43.273Z,33.92
2023-04-12T14:40:12.642Z,33.93
2023-04-12T14:42:40.618Z,33.91
2023-04-12T14:45:09.986Z,34.71
2023-04-12T14:47:38.139Z,33.92
2023-04-12T14:50:07.047Z,34.77
2023-04-12T14:52:35.225Z,34.62
2023-04-12T14:55:03.931Z,35.30
2023-04-12T14:57:34.981Z,35.89
2023-04-12T15:00:04.392Z,35.37
2023-04-12T15:02:32.451Z,35.18
2023-04-12T15:05:04.197Z,34.98
2023-04-12T15:07:32.225Z,35.62
2023-04-12T15:10:00.689Z,37.34
2023-04-12T15:12:28.916Z,37.74
2023-04-12T15:14:58.100Z,38.58
2023-04-12T15:17:26.086Z,39.70
2023-04-12T15:19:53.922Z,41.17
2023-04-12T15:22:22.523Z,42.16
2023-04-12T15:24:50.480Z,42.41
2023-04-12T15:27:18.326Z,43.88
2023-04-12T15:29:46.338Z,45.86
2023-04-12T15:32:15.883Z,47.82
2023-04-12T15:34:43.923Z,47.93
2023-04-12T15:37:11.912Z,50.43
2023-04-12T15:39:39.965Z,50.21
2023-04-12T15:42:08.215Z,52.03
2023-04-12T15:44:36.155Z,51.68
2023-04-12T15:47:11.632Z,51.27
2023-04-12T15:49:41.616Z,53.02
2023-04-12T15:52:09.439Z,52.02
2023-04-12T15:54:43.545Z,53.75
2023-04-12T15:57:12.147Z,55.63
2023-04-12T15:59:41.957Z,54.10
2023-04-12T16:02:10.469Z,53.80
2023-04-12T16:04:39.388Z,54.34
2023-04-12T16:07:09.135Z,58.90
2023-04-12T16:09:39.773Z,61.21
2023-04-12T16:12:07.994Z,60.44
2023-04-12T16:14:36.775Z,58.04
2023-04-12T16:17:04.925Z,57.54
2023-04-12T16:19:33.454Z,57.34
2023-04-12T16:22:01.736Z,56.30
2023-04-12T16:24:31.039Z,58.73
2023-04-12T16:26:59.254Z,56.77
2023-04-12T16:29:27.082Z,56.86
2023-04-12T16:31:55.157Z,58.42
2023-04-12T16:34:23.285Z,57.34
2023-04-12T16:36:52.912Z,58.59
2023-04-12T16:39:20.778Z,58.02
2023-04-12T16:41:49.988Z,57.73
2023-04-12T16:44:18.940Z,58.53
2023-04-12T16:46:47.729Z,57.29
2023-04-12T16:49:17.585Z,57.26
2023-04-12T16:51:47.010Z,57.90
2023-04-12T16:54:14.922Z,57.88
2023-04-12T16:56:42.758Z,59.91
2023-04-12T16:59:12.092Z,59.57
2023-04-12T17:01:40.411Z,59.81
2023-04-12T17:04:08.599Z,58.24
2023-04-12T17:06:36.724Z,60.40
2023-04-12T17:09:05.096Z,60.90
2023-04-12T17:11:33.228Z,62.02
2023-04-12T17:14:01.089Z,61.18
2023-04-12T17:16:30.552Z,62.37
2023-04-12T17:18:58.635Z,61.71
2023-04-12T17:21:26.942Z,61.44
2023-04-12T17:23:56.071Z,61.58
2023-04-12T17:26:26.465Z,63.19
2023-04-12T17:28:54.633Z,62.15
2023-04-12T17:31:22.582Z,61.51
2023-04-12T17:33:51.860Z,61.98
2023-04-12T17:36:19.735Z,61.49
2023-04-12T17:38:47.588Z,61.85
2023-04-12T17:41:15.754Z,61.91
2023-04-12T17:43:43.536Z,62.14
2023-04-12T17:46:11.378Z,62.15
2023-04-12T17:48:40.090Z,61.26
2023-04-12T17:51:09.828Z,62.26
2023-04-12T17:53:37.726Z,62.22
2023-04-12T17:56:05.935Z,61.27
2023-04-12T17:58:34.333Z,62.16
2023-04-12T18:01:02.354Z,62.70
2023-04-12T18:03:31.486Z,62.21
2023-04-12T18:06:00.684Z,61.94
2023-04-12T18:08:29.861Z,62.23
2023-04-12T18:10:57.763Z,62.73
2023-04-12T18:13:25.740Z,62.61
2023-04-12T18:15:53.601Z,62.72
2023-04-12T18:18:21.442Z,63.62
2023-04-12T18:20:49.307Z,64.37
2023-04-12T18:23:17.232Z,62.47
2023-04-12T18:25:46.466Z,62.34
2023-04-12T18:28:14.850Z,62.03
2023-04-12T18:30:42.704Z,62.72
2023-04-12T18:33:10.768Z,62.94
2023-04-12T18:35:39.153Z,63.42
2023-04-12T18:38:07.546Z,63.59
2023-04-12T18:40:37.828Z,62.36
2023-04-12T18:43:08.006Z,62.44
2023-04-12T18:45:40.087Z,63.19
2023-04-12T18:48:08.608Z,62.92
2023-04-12T18:50:39.286Z,63.15
2023-04-12T18:53:07.887Z,62.78
2023-04-12T18:55:35.802Z,63.13
2023-04-12T18:58:03.795Z,63.22
2023-04-12T19:00:33.722Z,63.22
2023-04-12T19:03:02.075Z,64.05
2023-04-12T19:05:30.341Z,63.91
2023-04-12T19:07:58.170Z,64.40
2023-04-12T19:10:30.475Z,64.44
2023-04-12T19:12:58.460Z,63.37
2023-04-12T19:15:26.268Z,63.93
2023-04-12T19:17:55.878Z,64.76
2023-04-12T19:20:23.747Z,64.88
2023-04-12T19:22:51.585Z,64.51
2023-04-12T19:25:20.162Z,63.98
2023-04-12T19:27:48.096Z,66.06
2023-04-12T19:30:17.174Z,67.25
2023-04-12T19:32:45.050Z,66.73
2023-04-12T19:35:14.447Z,65.78
2023-04-12T19:37:42.595Z,66.40
2023-04-12T19:40:13.469Z,67.63
2023-04-12T19:42:42.367Z,67.74
2023-04-12T19:45:10.745Z,69.03
2023-04-12T19:47:44.679Z,68.49
2023-04-12T19:50:15.437Z,68.43
2023-04-12T19:52:43.824Z,69.70
2023-04-12T19:55:12.143Z,70.61
2023-04-12T19:57:40.888Z,70.32
2023-04-12T20:00:12.792Z,72.04
2023-04-12T20:02:40.892Z,71.91
2023-04-12T20:05:09.239Z,72.88
2023-04-12T20:07:40.126Z,73.56
2023-04-12T20:10:10.346Z,74.82
2023-04-12T20:12:39.103Z,74.77
2023-04-12T20:15:09.098Z,74.80
2023-04-12T20:17:37.615Z,73.52
2023-04-12T20:20:08.715Z,75.14
2023-04-12T20:22:36.838Z,75.06
2023-04-12T20:25:06.788Z,75.45
2023-04-12T20:27:36.561Z,75.63
2023-04-12T20:30:05.155Z,76.46
2023-04-12T20:32:34.333Z,77.54
2023-04-12T20:35:03.769Z,76.98
2023-04-12T20:37:32.606Z,76.03
2023-04-12T20:40:00.873Z,75.17
2023-04-12T20:42:30.273Z,75.88
2023-04-12T20:44:58.271Z,76.01
2023-04-12T20:47:26.096Z,75.83
2023-04-12T20:49:56.077Z,76.49
2023-04-12T20:52:24.247Z,75.94
2023-04-12T20:54:53.374Z,76.02
2023-04-12T20:57:21.321Z,76.07
2023-04-12T20:59:52.582Z,76.75
2023-04-12T21:02:21.159Z,78.15
2023-04-12T21:04:49.301Z,76.60
2023-04-12T21:07:18.139Z,76.93
2023-04-12T21:09:46.048Z,76.73
2023-04-12T21:12:13.930Z,78.33
2023-04-12T21:14:41.789Z,77.49
2023-04-12T21:17:10.984Z,78.18
2023-04-12T21:19:40.992Z,77.21
2023-04-12T21:22:09.346Z,77.34
2023-04-12T21:24:38.886Z,77.98
2023-04-12T21:27:08.371Z,80.87
2023-04-12T21:29:40.922Z,80.80
2023-04-12T21:32:09.746Z,81.12
2023-04-12T21:34:39.223Z,80.56
2023-04-12T21:37:07.104Z,82.09
2023-04-12T21:39:34.967Z,82.81
2023-04-12T21:42:03.196Z,81.99
2023-04-12T21:44:31.999Z,82.80
2023-04-12T21:46:59.850Z,81.33
2023-04-12T21:49:29.955Z,82.23
2023-04-12T21:51:59.415Z,82.02
2023-04-12T21:54:28.912Z,81.63
2023-04-12T21:56:57.377Z,81.51
2023-04-12T21:59:26.659Z,80.75
2023-04-12T22:01:54.578Z,82.41
2023-04-12T22:04:22.552Z,81.77
2023-04-12T22:06:51.549Z,81.78
2023-04-12T22:09:20.787Z,82.57
2023-04-12T22:11:49.113Z,82.69
2023-04-12T22:14:17.038Z,84.48
2023-04-12T22:16:45.239Z,83.18
2023-04-12T22:19:13.263Z,83.95
2023-04-12T22:21:41.591Z,83.85
2023-04-12T22:24:10.079Z,84.15
2023-04-12T22:26:39.310Z,82.59
2023-04-12T22:29:07.224Z,83.79
2023-04-12T22:31:35.556Z,83.29
2023-04-12T22:34:04.587Z,82.99
2023-04-12T22:36:37.259Z,83.43
2023-04-12T22:39:05.849Z,82.40
2023-04-12T22:41:33.944Z,82.46
2023-04-12T22:44:03.422Z,83.09
2023-04-12T22:46:32.286Z,84.39
2023-04-12T22:49:01.522Z,83.84
2023-04-12T22:51:29.913Z,82.30
2023-04-12T22:53:58.132Z,83.05
2023-04-12T22:56:27.130Z,82.73
2023-04-12T22:58:55.713Z,82.44
2023-04-12T23:01:25.244Z,83.35
2023-04-12T23:03:54.160Z,85.16
2023-04-12T23:06:22.122Z,84.96
2023-04-12T23:08:49.963Z,83.62
2023-04-12T23:11:17.862Z,84.51
2023-04-12T23:13:45.877Z,85.23
2023-04-12T23:16:13.833Z,84.98
2023-04-12T23:18:45.019Z,84.02
2023-04-12T23:21:13.162Z,83.11
2023-04-12T23:23:41.559Z,84.22
2023-04-12T23:26:10.742Z,83.78
2023-04-12T23:28:40.299Z,86.01
2023-04-12T23:31:09.922Z,85.49
2023-04-12T23:33:38.766Z,85.03
2023-04-12T23:36:10.107Z,85.73
2023-04-12T23:38:38.809Z,86.51
2023-04-12T23:41:09.080Z,84.51
2023-04-12T23:43:37.232Z,85.19
2023-04-12T23:46:05.712Z,86.24
2023-04-12T23:48:33.932Z,85.59
2023-04-12T23:51:02.022Z,85.05
2023-04-12T23:53:31.560Z,86.19
2023-04-12T23:55:59.700Z,85.33
2023-04-12T23:58:27.819Z,85.41
